createdAt,value
2023-01-07T00:01:12.490Z,44.60
2023-01-07T00:03:40.190Z,47.83
2023-01-07T00:06:12.343Z,43.95
2023-01-07T00:08:41.257Z,43.70
2023-01-07T00:11:10.068Z,45.30
2023-01-07T00:13:37.061Z,47.05
2023-01-07T00:16:09.712Z,42.28
2023-01-07T00:18:36.767Z,43.50
2023-01-07T00:21:07.103Z,47.60
2023-01-07T00:23:35.343Z,51.03
2023-01-07T00:26:04.786Z,46.17
2023-01-07T00:28:33.786Z,42.70
2023-01-07T00:31:06.477Z,44.25
2023-01-07T00:33:35.417Z,45.92
2023-01-07T00:36:03.943Z,45.85
2023-01-07T00:38:30.554Z,46.78
2023-01-07T00:40:57.205Z,46.88
2023-01-07T00:43:23.638Z,45.15
2023-01-07T00:45:50.094Z,44.30
2023-01-07T00:48:18.611Z,45.42
2023-01-07T00:50:48.180Z,48.45
2023-01-07T00:53:14.607Z,44.90
2023-01-07T00:55:41.341Z,44.63
2023-01-07T00:58:07.898Z,48.20
2023-01-07T01:00:34.444Z,45.78
2023-01-07T01:03:00.841Z,47.55
2023-01-07T01:05:27.269Z,44.85
2023-01-07T01:07:53.710Z,46.58
2023-01-07T01:10:20.613Z,43.40
2023-01-07T01:12:49.316Z,42.17
2023-01-07T01:15:17.111Z,43.45
2023-01-07T01:17:43.910Z,47.38
2023-01-07T01:20:15.265Z,45.70
2023-01-07T01:22:42.484Z,45.28
2023-01-07T01:25:09.867Z,45.47
2023-01-07T01:27:36.598Z,47.00
2023-01-07T01:30:03.666Z,44.10
2023-01-07T01:32:30.165Z,44.83
2023-01-07T01:34:56.717Z,47.65
2023-01-07T01:37:23.453Z,46.92
2023-01-07T01:39:49.837Z,47.80
2023-01-07T01:42:19.533Z,46.90
2023-01-07T01:44:50.650Z,47.33
2023-01-07T01:47:23.174Z,42.17
2023-01-07T01:50:18.899Z,47.13
2023-01-07T01:52:55.111Z,43.50
2023-01-07T01:55:26.043Z,43.53
2023-01-07T01:57:56.500Z,40.15
2023-01-07T02:00:22.920Z,43.17
2023-01-07T02:02:54.500Z,41.28
2023-01-07T02:05:21.435Z,42.05
2023-01-07T02:07:47.828Z,41.88
2023-01-07T02:10:16.941Z,41.85
2023-01-07T02:13:01.795Z,38.40
2023-01-07T02:15:54.640Z,43.88
2023-01-07T02:18:24.029Z,42.38
2023-01-07T02:20:56.387Z,44.78
2023-01-07T02:23:41.224Z,47.15
2023-01-07T02:26:43.945Z,46.80
2023-01-07T02:29:28.034Z,47.78
2023-01-07T02:32:14.627Z,47.50
2023-01-07T02:35:03.101Z,47.08
2023-01-07T02:37:54.156Z,50.63
2023-01-07T02:40:36.998Z,51.20
2023-01-07T02:43:41.308Z,48.33
2023-01-07T02:46:30.582Z,50.08
2023-01-07T02:49:01.138Z,44.88
2023-01-07T02:51:39.522Z,46.77
2023-01-07T02:54:12.521Z,45.28
2023-01-07T02:56:47.797Z,48.67
2023-01-07T02:59:23.066Z,50.63
2023-01-07T03:02:26.300Z,49.42
2023-01-07T03:05:09.589Z,47.08
2023-01-07T03:07:53.823Z,47.90
2023-01-07T03:10:29.158Z,56.08
2023-01-07T03:13:04.278Z,51.78
2023-01-07T03:15:40.051Z,55.00
2023-01-07T03:18:13.587Z,49.55
2023-01-07T03:20:43.082Z,50.33
2023-01-07T03:23:13.261Z,52.47
2023-01-07T03:25:43.855Z,50.63
2023-01-07T03:28:14.017Z,55.77
2023-01-07T03:30:40.513Z,51.40
2023-01-07T03:33:17.617Z,51.72
2023-01-07T03:35:49.010Z,50.10
2023-01-07T03:40:44.221Z,52.05
2023-01-07T03:43:15.326Z,52.78
2023-01-07T03:45:42.548Z,46.72
2023-01-07T03:48:09.122Z,47.10
2023-01-07T03:50:35.663Z,52.78
2023-01-07T03:53:02.168Z,49.72
2023-01-07T03:55:28.594Z,52.42
2023-01-07T03:57:55.926Z,54.88
2023-01-07T04:00:22.380Z,50.13
2023-01-07T04:02:48.971Z,56.83
2023-01-07T04:05:15.621Z,54.67
2023-01-07T04:07:42.104Z,54.97
2023-01-07T04:10:09.152Z,55.08
2023-01-07T04:12:36.031Z,51.58
2023-01-07T04:15:03.111Z,54.10
2023-01-07T04:17:29.497Z,53.63
2023-01-07T04:19:55.884Z,56.08
2023-01-07T04:22:22.325Z,54.40
2023-01-07T04:24:48.759Z,53.80
2023-01-07T04:27:15.521Z,54.72
2023-01-07T04:29:42.079Z,51.78
2023-01-07T04:32:08.451Z,52.47
2023-01-07T04:34:34.903Z,53.42
2023-01-07T04:37:01.322Z,53.33
2023-01-07T04:39:27.715Z,56.33
2023-01-07T04:41:54.096Z,55.88
2023-01-07T04:44:20.538Z,54.25
2023-01-07T04:46:46.965Z,51.35
2023-01-07T04:49:13.551Z,50.40
2023-01-07T04:51:40.023Z,58.95
2023-01-07T04:54:06.434Z,60.13
2023-01-07T04:56:32.860Z,61.30
2023-01-07T04:58:59.297Z,56.90
2023-01-07T05:01:25.943Z,57.20
2023-01-07T05:03:52.475Z,56.05
2023-01-07T05:06:18.998Z,56.00
2023-01-07T05:08:45.414Z,58.20
2023-01-07T05:11:11.915Z,44.38
2023-01-07T05:13:38.339Z,49.42
2023-01-07T05:16:05.058Z,43.25
2023-01-07T05:18:31.518Z,49.47
2023-01-07T05:20:58.063Z,50.58
2023-01-07T05:23:24.473Z,51.10
2023-01-07T05:25:50.864Z,52.17
2023-01-07T05:28:17.307Z,45.60
2023-01-07T05:30:43.784Z,48.35
2023-01-07T05:33:10.193Z,45.50
2023-01-07T05:35:36.666Z,48.03
2023-01-07T05:38:03.223Z,45.38
2023-01-07T05:40:29.980Z,48.15
2023-01-07T05:42:56.502Z,43.42
2023-01-07T05:45:22.951Z,47.35
2023-01-07T05:47:49.438Z,50.40
2023-01-07T05:50:16.020Z,45.97
2023-01-07T05:52:42.431Z,48.35
2023-01-07T05:55:09.102Z,47.75
2023-01-07T05:57:35.524Z,46.30
2023-01-07T06:00:01.928Z,47.10
2023-01-07T06:02:28.329Z,50.42
2023-01-07T06:04:54.904Z,45.88
2023-01-07T06:07:21.341Z,45.55
2023-01-07T06:09:47.732Z,47.72
2023-01-07T06:12:14.145Z,44.63
2023-01-07T06:14:40.562Z,47.38
2023-01-07T06:17:07.109Z,50.72
2023-01-07T06:19:33.531Z,47.35
2023-01-07T06:22:00.009Z,50.83
2023-01-07T06:24:26.697Z,45.35
2023-01-07T06:26:53.181Z,51.78
2023-01-07T06:29:19.648Z,51.92
2023-01-07T06:31:46.078Z,54.45
2023-01-07T06:34:12.457Z,50.38
2023-01-07T06:36:39.102Z,52.05
2023-01-07T06:39:05.614Z,47.67
2023-01-07T06:41:32.099Z,54.15
2023-01-07T06:43:58.555Z,61.53
2023-01-07T06:46:25.277Z,47.30
2023-01-07T06:48:51.774Z,57.03
2023-01-07T06:51:18.272Z,47.10
2023-01-07T06:53:44.751Z,48.03
2023-01-07T06:56:11.192Z,44.35
2023-01-07T06:58:37.657Z,46.47
2023-01-07T07:01:08.520Z,45.38
2023-01-07T07:03:35.061Z,45.83
2023-01-07T07:06:01.672Z,44.03
2023-01-07T07:08:29.238Z,43.92
2023-01-07T07:10:55.800Z,45.60
2023-01-07T07:13:22.242Z,46.90
2023-01-07T07:15:49.754Z,38.05
2023-01-07T07:18:17.876Z,40.38
2023-01-07T07:20:46.781Z,41.22
2023-01-07T07:23:13.352Z,44.53
2023-01-07T07:25:39.945Z,45.33
2023-01-07T07:28:06.433Z,46.17
2023-01-07T07:30:45.941Z,42.33
2023-01-07T07:33:15.160Z,42.63
2023-01-07T07:35:41.719Z,45.53
2023-01-07T07:38:08.172Z,44.63
2023-01-07T07:40:34.577Z,42.15
2023-01-07T07:43:10.462Z,45.28
2023-01-07T07:45:39.731Z,48.10
2023-01-07T07:48:07.679Z,44.78
2023-01-07T07:50:35.074Z,47.33
2023-01-07T07:53:01.801Z,42.50
2023-01-07T07:55:28.274Z,40.72
2023-01-07T07:57:56.296Z,47.45
2023-01-07T08:00:23.247Z,44.85
2023-01-07T08:02:50.208Z,45.45
2023-01-07T08:05:16.848Z,43.55
2023-01-07T08:07:43.243Z,41.60
2023-01-07T08:10:09.855Z,44.15
2023-01-07T08:12:38.252Z,38.00
2023-01-07T08:15:06.901Z,46.45
2023-01-07T08:17:33.562Z,47.55
2023-01-07T08:20:00.196Z,43.13
2023-01-07T08:22:26.927Z,44.17
2023-01-07T08:24:53.463Z,46.40
2023-01-07T08:27:20.090Z,45.83
2023-01-07T08:29:47.003Z,46.42
2023-01-07T08:32:13.802Z,46.38
2023-01-07T08:34:40.399Z,47.33
2023-01-07T08:37:06.949Z,51.50
2023-01-07T08:39:33.497Z,53.28
2023-01-07T08:41:59.979Z,48.97
2023-01-07T08:44:26.399Z,49.35
2023-01-07T08:46:54.100Z,52.97
2023-01-07T08:49:20.614Z,48.90
2023-01-07T08:51:47.074Z,48.67
2023-01-07T08:54:13.611Z,49.17
2023-01-07T08:56:40.057Z,54.65
2023-01-07T08:59:06.627Z,51.42
2023-01-07T09:01:33.351Z,50.47
2023-01-07T09:04:00.259Z,48.03
2023-01-07T09:06:26.736Z,49.58
2023-01-07T09:08:53.164Z,48.92
2023-01-07T09:11:19.654Z,48.22
2023-01-07T09:13:46.098Z,52.20
2023-01-07T09:16:12.579Z,47.35
2023-01-07T09:18:38.998Z,45.75
2023-01-07T09:21:05.627Z,52.58
2023-01-07T09:23:32.102Z,51.50
2023-01-07T09:25:58.542Z,108.15
2023-01-07T09:28:25.039Z,74.93
2023-01-07T09:30:51.531Z,59.40
2023-01-07T09:33:17.981Z,48.05
2023-01-07T09:35:44.469Z,49.17
2023-01-07T09:38:11.106Z,48.33
2023-01-07T09:40:40.386Z,45.05
2023-01-07T09:43:59.692Z,47.30
2023-01-07T09:46:20.583Z,50.00
2023-01-07T09:48:51.389Z,45.55
2023-01-07T09:51:23.428Z,44.20
2023-01-07T09:53:55.365Z,46.35
2023-01-07T09:56:30.689Z,47.25
2023-01-07T09:58:58.959Z,43.83
2023-01-07T10:01:50.483Z,47.50
2023-01-07T10:04:40.280Z,47.80
2023-01-07T10:07:28.763Z,46.78
2023-01-07T10:10:04.319Z,46.75
2023-01-07T10:12:49.126Z,48.75
2023-01-07T10:15:37.125Z,45.53
2023-01-07T10:18:25.597Z,49.20
2023-01-07T10:21:08.706Z,44.92
2023-01-07T10:23:43.991Z,45.53
2023-01-07T10:26:39.300Z,45.03
2023-01-07T10:29:27.538Z,46.65
2023-01-07T10:31:56.682Z,46.53
2023-01-07T10:34:32.399Z,49.85
2023-01-07T10:37:03.257Z,46.92
2023-01-07T10:39:35.550Z,50.15
2023-01-07T10:42:36.387Z,49.55
2023-01-07T10:45:21.413Z,48.03
2023-01-07T10:48:04.468Z,43.90
2023-01-07T10:50:49.840Z,37.88
2023-01-07T10:53:54.293Z,37.40
2023-01-07T10:56:30.069Z,33.83
2023-01-07T10:58:56.901Z,35.42
2023-01-07T11:01:35.114Z,33.53
2023-01-07T11:04:02.604Z,32.78
2023-01-07T11:06:47.552Z,29.42
2023-01-07T11:09:19.659Z,27.98
2023-01-07T11:11:48.401Z,24.77
2023-01-07T11:14:24.106Z,27.77
2023-01-07T11:16:55.988Z,26.73
2023-01-07T11:19:41.715Z,24.45
2023-01-07T11:22:27.887Z,25.08
2023-01-07T11:24:56.204Z,26.15
2023-01-07T11:27:26.009Z,25.67
2023-01-07T11:30:05.094Z,24.38
2023-01-07T11:32:36.728Z,25.30
2023-01-07T11:35:10.469Z,27.50
2023-01-07T11:37:39.416Z,29.52
2023-01-07T11:40:19.985Z,27.05
2023-01-07T11:43:15.552Z,27.40
2023-01-07T11:46:21.422Z,29.67
2023-01-07T11:48:46.205Z,25.25
2023-01-07T11:51:13.017Z,28.80
2023-01-07T11:53:43.987Z,26.52
2023-01-07T11:56:12.001Z,27.25
2023-01-07T11:58:42.954Z,27.77
2023-01-07T12:01:10.035Z,28.30
2023-01-07T12:04:04.017Z,28.60
2023-01-07T12:06:37.561Z,25.50
2023-01-07T12:09:18.089Z,23.15
2023-01-07T12:11:45.773Z,25.02
2023-01-07T12:14:38.181Z,23.48
2023-01-07T12:17:20.539Z,25.27
2023-01-07T12:20:05.454Z,28.88
2023-01-07T12:23:09.401Z,24.63
2023-01-07T12:25:52.690Z,23.05
2023-01-07T12:28:41.812Z,22.73
2023-01-07T12:31:21.431Z,33.30
2023-01-07T12:34:04.479Z,24.45
2023-01-07T12:36:48.272Z,24.08
2023-01-07T12:39:23.035Z,27.90
2023-01-07T12:41:58.588Z,28.02
2023-01-07T12:44:25.154Z,26.02
2023-01-07T12:47:31.974Z,33.65
2023-01-07T12:50:25.644Z,30.67
2023-01-07T12:53:02.038Z,30.58
2023-01-07T12:55:40.882Z,27.40
2023-01-07T12:58:28.512Z,26.95
2023-01-07T13:01:15.605Z,33.10
2023-01-07T13:04:00.956Z,28.08
2023-01-07T13:06:33.461Z,29.98
2023-01-07T13:09:41.927Z,31.20
2023-01-07T13:12:43.369Z,30.13
2023-01-07T13:15:12.432Z,28.83
2023-01-07T13:17:40.614Z,29.77
2023-01-07T13:20:12.616Z,32.17
2023-01-07T13:22:54.851Z,37.00
2023-01-07T13:25:40.778Z,34.90
2023-01-07T13:28:31.936Z,31.98
2023-01-07T13:31:07.587Z,30.35
2023-01-07T13:33:49.050Z,29.15
2023-01-07T13:36:45.118Z,32.33
2023-01-07T13:40:02.522Z,29.30
2023-01-07T13:42:54.850Z,34.10
2023-01-07T13:45:30.897Z,32.25
2023-01-07T13:48:00.728Z,33.15
2023-01-07T13:50:45.086Z,35.25
2023-01-07T13:53:14.421Z,35.20
2023-01-07T13:55:43.795Z,36.10
2023-01-07T13:58:45.471Z,36.40
2023-01-07T14:01:15.234Z,34.95
2023-01-07T14:03:42.209Z,34.03
2023-01-07T14:06:20.967Z,31.77
2023-01-07T14:09:13.549Z,31.23
2023-01-07T14:12:18.297Z,29.80
2023-01-07T14:15:03.730Z,32.53
2023-01-07T14:17:48.390Z,32.95
2023-01-07T14:20:31.646Z,31.38
2023-01-07T14:23:20.100Z,33.50
2023-01-07T14:25:50.872Z,29.08
2023-01-07T14:28:32.332Z,33.67
2023-01-07T14:31:01.090Z,35.05
2023-01-07T14:33:52.474Z,29.23
2023-01-07T14:36:19.016Z,32.25
2023-01-07T14:38:47.867Z,30.88
2023-01-07T14:41:16.689Z,32.55
2023-01-07T14:43:46.969Z,36.63
2023-01-07T14:46:22.650Z,38.72
2023-01-07T14:48:58.178Z,37.60
2023-01-07T14:52:19.198Z,28.73
2023-01-07T14:55:25.500Z,31.60
2023-01-07T14:58:02.373Z,30.13
2023-01-07T15:00:53.173Z,34.95
2023-01-07T15:03:30.859Z,68.83
2023-01-07T15:06:18.011Z,46.83
2023-01-07T15:09:11.639Z,46.25
2023-01-07T15:12:00.409Z,42.15
2023-01-07T15:14:55.451Z,44.00
2023-01-07T15:17:21.971Z,38.50
2023-01-07T15:19:48.876Z,32.85
2023-01-07T15:22:53.864Z,35.08
2023-01-07T15:25:43.791Z,33.78
2023-01-07T15:28:10.235Z,33.83
2023-01-07T15:30:46.224Z,31.67
2023-01-07T15:33:58.548Z,34.45
2023-01-07T15:36:25.757Z,32.50
2023-01-07T15:38:55.700Z,34.97
2023-01-07T15:41:25.105Z,34.45
2023-01-07T15:43:53.823Z,36.40
2023-01-07T15:46:23.423Z,33.40
2023-01-07T15:49:08.561Z,32.08
2023-01-07T15:51:44.499Z,33.10
2023-01-07T15:54:30.341Z,32.35
2023-01-07T15:57:22.945Z,36.72
2023-01-07T15:59:52.496Z,38.13
2023-01-07T16:02:27.610Z,38.92
2023-01-07T16:04:57.563Z,32.33
2023-01-07T16:07:34.281Z,35.08
2023-01-07T16:10:00.944Z,39.75
2023-01-07T16:12:31.998Z,33.78
2023-01-07T16:14:58.558Z,33.88
2023-01-07T16:17:25.855Z,36.03
2023-01-07T16:20:09.632Z,37.58
2023-01-07T16:22:49.268Z,33.92
2023-01-07T16:25:31.185Z,34.92
2023-01-07T16:27:57.784Z,34.47
2023-01-07T16:30:24.321Z,34.72
2023-01-07T16:32:51.024Z,34.00
2023-01-07T16:35:22.627Z,38.97
2023-01-07T16:37:49.777Z,37.97
2023-01-07T16:40:24.517Z,34.42
2023-01-07T16:42:51.115Z,42.58
2023-01-07T16:45:29.136Z,40.22
2023-01-07T16:48:17.892Z,40.90
2023-01-07T16:50:45.939Z,38.15
2023-01-07T16:53:33.457Z,42.03
2023-01-07T16:56:10.453Z,41.22
2023-01-07T16:58:41.358Z,39.92
2023-01-07T17:01:09.924Z,40.42
2023-01-07T17:03:55.696Z,43.35
2023-01-07T17:06:42.483Z,43.53
2023-01-07T17:09:24.558Z,47.22
2023-01-07T17:11:53.038Z,38.92
2023-01-07T17:14:49.909Z,42.33
2023-01-07T17:17:29.943Z,43.58
2023-01-07T17:20:12.842Z,40.38
2023-01-07T17:22:40.331Z,36.28
2023-01-07T17:25:20.528Z,38.60
2023-01-07T17:27:58.304Z,38.42
2023-01-07T17:30:34.993Z,35.88
2023-01-07T17:33:01.829Z,40.65
2023-01-07T17:35:28.292Z,41.00
2023-01-07T17:37:56.629Z,43.92
2023-01-07T17:40:23.114Z,41.05
2023-01-07T17:43:09.372Z,41.42
2023-01-07T17:45:36.097Z,41.47
2023-01-07T17:48:02.666Z,39.65
2023-01-07T17:50:35.499Z,43.15
2023-01-07T17:53:02.107Z,48.05
2023-01-07T17:55:30.723Z,39.80
2023-01-07T17:57:57.344Z,43.08
2023-01-07T18:00:26.413Z,41.30
2023-01-07T18:02:52.996Z,42.72
2023-01-07T18:05:22.347Z,38.67
2023-01-07T18:07:50.691Z,42.25
2023-01-07T18:10:20.146Z,48.25
2023-01-07T18:12:46.932Z,42.40
2023-01-07T18:15:17.882Z,45.13
2023-01-07T18:17:45.364Z,44.40
2023-01-07T18:20:12.029Z,40.35
2023-01-07T18:22:38.449Z,45.10
2023-01-07T18:25:06.035Z,42.30
2023-01-07T18:27:32.660Z,59.63
2023-01-07T18:29:59.091Z,47.58
2023-01-07T18:32:25.521Z,43.95
2023-01-07T18:34:52.008Z,42.92
2023-01-07T18:37:18.751Z,41.65
2023-01-07T18:39:45.159Z,46.03
2023-01-07T18:42:11.823Z,41.90
2023-01-07T18:44:38.209Z,44.00
2023-01-07T18:47:04.725Z,54.22
2023-01-07T18:49:31.165Z,129.75
2023-01-07T18:51:57.553Z,57.28
2023-01-07T18:54:24.067Z,45.38
2023-01-07T18:56:50.642Z,46.80
2023-01-07T18:59:17.213Z,50.05
2023-01-07T19:01:43.827Z,57.72
2023-01-07T19:04:10.405Z,56.42
2023-01-07T19:06:36.857Z,52.30
2023-01-07T19:09:03.383Z,50.88
2023-01-07T19:11:31.361Z,54.03
2023-01-07T19:13:57.785Z,55.20
2023-01-07T19:16:24.264Z,50.72
2023-01-07T19:18:52.347Z,47.10
2023-01-07T19:21:19.242Z,48.60
2023-01-07T19:23:47.443Z,45.30
2023-01-07T19:26:13.885Z,47.50
2023-01-07T19:28:40.323Z,48.53
2023-01-07T19:31:08.142Z,51.33
2023-01-07T19:33:35.151Z,44.80
2023-01-07T19:36:09.214Z,44.65
2023-01-07T19:38:40.390Z,41.70
2023-01-07T19:41:12.621Z,43.47
2023-01-07T19:43:39.377Z,40.10
2023-01-07T19:46:07.283Z,42.30
2023-01-07T19:48:33.985Z,40.92
2023-01-07T19:51:02.420Z,41.90
2023-01-07T19:53:29.821Z,38.92
2023-01-07T19:56:08.175Z,40.00
2023-01-07T19:58:35.220Z,41.90
2023-01-07T20:01:07.510Z,41.72
2023-01-07T20:03:35.493Z,43.15
2023-01-07T20:06:08.184Z,44.17
2023-01-07T20:08:35.148Z,42.97
2023-01-07T20:11:02.115Z,38.53
2023-01-07T20:13:33.887Z,42.72
2023-01-07T20:16:12.691Z,39.90
2023-01-07T20:18:41.359Z,42.47
2023-01-07T20:21:08.968Z,38.45
2023-01-07T20:23:36.635Z,41.33
2023-01-07T20:26:06.621Z,45.85
2023-01-07T20:28:34.041Z,46.38
2023-01-07T20:31:04.431Z,45.45
2023-01-07T20:33:30.959Z,42.55
2023-01-07T20:36:06.270Z,45.33
2023-01-07T20:38:32.793Z,48.38
2023-01-07T20:40:59.517Z,47.58
2023-01-07T20:43:26.213Z,44.15
2023-01-07T20:45:57.599Z,42.83
2023-01-07T20:50:50.441Z,42.30
2023-01-07T20:53:16.987Z,42.40
2023-01-07T20:55:43.455Z,42.28
2023-01-07T20:58:09.851Z,38.63
2023-01-07T21:00:37.581Z,40.80
2023-01-07T21:03:06.016Z,43.25
2023-01-07T21:05:32.570Z,40.78
2023-01-07T21:07:59.323Z,42.30
2023-01-07T21:10:26.314Z,43.80
2023-01-07T21:12:53.727Z,42.72
2023-01-07T21:15:20.137Z,40.72
2023-01-07T21:17:46.561Z,41.97
2023-01-07T21:20:15.004Z,41.00
2023-01-07T21:22:42.201Z,42.42
2023-01-07T21:25:11.216Z,43.95
2023-01-07T21:27:38.151Z,40.80
2023-01-07T21:30:09.177Z,43.63
2023-01-07T21:32:35.795Z,46.25
2023-01-07T21:35:02.203Z,48.42
2023-01-07T21:37:29.410Z,49.90
2023-01-07T21:39:55.932Z,93.35
2023-01-07T21:42:22.372Z,58.88
2023-01-07T21:44:48.771Z,49.67
2023-01-07T21:47:15.263Z,46.85
2023-01-07T21:49:43.262Z,45.58
2023-01-07T21:52:09.669Z,48.92
2023-01-07T21:54:36.130Z,89.30
2023-01-07T21:57:02.548Z,57.10
2023-01-07T21:59:29.090Z,49.15
2023-01-07T22:01:55.582Z,46.95
2023-01-07T22:04:22.194Z,47.58
2023-01-07T22:06:48.712Z,41.70
2023-01-07T22:09:16.030Z,45.63
2023-01-07T22:11:43.054Z,41.78
2023-01-07T22:14:15.685Z,42.10
2023-01-07T22:16:42.806Z,38.97
2023-01-07T22:19:11.051Z,41.30
2023-01-07T22:21:38.512Z,52.80
2023-01-07T22:24:05.527Z,91.72
2023-01-07T22:26:31.958Z,48.58
2023-01-07T22:29:03.072Z,46.95
2023-01-07T22:33:59.046Z,46.20
2023-01-07T22:36:54.843Z,44.13
2023-01-07T22:39:29.516Z,42.60
2023-01-07T22:41:59.919Z,41.72
2023-01-07T22:44:36.634Z,42.38
2023-01-07T22:47:07.366Z,40.42
2023-01-07T22:49:34.982Z,43.45
2023-01-07T22:52:01.692Z,43.17
2023-01-07T22:54:28.665Z,42.03
2023-01-07T22:56:55.157Z,43.33
2023-01-07T22:59:21.596Z,42.20
2023-01-07T23:01:48.008Z,41.22
2023-01-07T23:04:14.498Z,43.58
2023-01-07T23:06:40.961Z,42.13
2023-01-07T23:09:07.646Z,43.72
2023-01-07T23:11:50.472Z,44.10
2023-01-07T23:14:22.097Z,43.33
2023-01-07T23:16:50.103Z,44.83
2023-01-07T23:19:17.592Z,42.38
2023-01-07T23:21:45.553Z,46.40
2023-01-07T23:24:13.088Z,41.63
2023-01-07T23:26:40.018Z,45.05
2023-01-07T23:29:07.210Z,44.53
2023-01-07T23:31:35.167Z,44.25
2023-01-07T23:34:02.038Z,44.95
2023-01-07T23:36:28.555Z,41.65
2023-01-07T23:38:55.149Z,40.67
2023-01-07T23:41:21.855Z,44.92
2023-01-07T23:43:48.792Z,41.45
2023-01-07T23:46:15.612Z,44.20
2023-01-07T23:48:42.111Z,42.88
2023-01-07T23:51:12.047Z,41.45
2023-01-07T23:53:39.076Z,42.15
2023-01-07T23:56:06.382Z,41.33
2023-01-07T23:58:33.399Z,47.03
